sensor_id;sensor_type;location;lat;lon;timestamp;temperature;humidity
4725;DHT22;2376;53.544;10.226;2023-04-03T00:00:36;4.80;99.90
4725;DHT22;2376;53.544;10.226;2023-04-03T00:03:03;4.80;99.90
4725;DHT22;2376;53.544;10.226;2023-04-03T00:05:32;4.80;99.90
4725;DHT22;2376;53.544;10.226;2023-04-03T00:07:58;4.80;99.90
4725;DHT22;2376;53.544;10.226;2023-04-03T00:10:27;4.70;99.90
4725;DHT22;2376;53.544;10.226;2023-04-03T00:12:54;4.70;99.90
4725;DHT22;2376;53.544;10.226;2023-04-03T00:15:20;4.70;99.90
4725;DHT22;2376;53.544;10.226;2023-04-03T00:17:47;4.70;99.90
4725;DHT22;2376;53.544;10.226;2023-04-03T00:20:13;4.60;99.90
4725;DHT22;2376;53.544;10.226;2023-04-03T00:22:42;4.60;99.90
4725;DHT22;2376;53.544;10.226;2023-04-03T00:25:09;4.60;99.90
4725;DHT22;2376;53.544;10.226;2023-04-03T00:27:36;4.50;99.90
4725;DHT22;2376;53.544;10.226;2023-04-03T00:30:04;4.40;99.90
4725;DHT22;2376;53.544;10.226;2023-04-03T00:32:31;4.40;99.90
4725;DHT22;2376;53.544;10.226;2023-04-03T00:34:57;4.40;99.90
4725;DHT22;2376;53.544;10.226;2023-04-03T00:37:24;4.30;99.90
4725;DHT22;2376;53.544;10.226;2023-04-03T00:39:52;4.30;99.90
4725;DHT22;2376;53.544;10.226;2023-04-03T00:42:19;4.40;99.90
4725;DHT22;2376;53.544;10.226;2023-04-03T00:47:52;4.40;99.90
4725;DHT22;2376;53.544;10.226;2023-04-03T00:50:19;4.40;99.90
4725;DHT22;2376;53.544;10.226;2023-04-03T00:52:46;4.40;99.90
4725;DHT22;2376;53.544;10.226;2023-04-03T00:55:16;4.40;99.90
4725;DHT22;2376;53.544;10.226;2023-04-03T00:57:43;4.30;99.90
4725;DHT22;2376;53.544;10.226;2023-04-03T01:00:15;4.30;99.90
4725;DHT22;2376;53.544;10.226;2023-04-03T01:02:43;4.30;99.90
4725;DHT22;2376;53.544;10.226;2023-04-03T01:05:10;4.30;99.90
4725;DHT22;2376;53.544;10.226;2023-04-03T01:07:38;4.30;99.90
4725;DHT22;2376;53.544;10.226;2023-04-03T01:10:07;4.30;99.90
4725;DHT22;2376;53.544;10.226;2023-04-03T01:12:37;4.20;99.90
4725;DHT22;2376;53.544;10.226;2023-04-03T01:15:06;4.20;99.90
4725;DHT22;2376;53.544;10.226;2023-04-03T01:17:35;4.20;99.90
4725;DHT22;2376;53.544;10.226;2023-04-03T01:23:35;4.30;99.90
4725;DHT22;2376;53.544;10.226;2023-04-03T01:26:04;4.20;99.90
4725;DHT22;2376;53.544;10.226;2023-04-03T01:28:35;4.20;99.90
4725;DHT22;2376;53.544;10.226;2023-04-03T01:31:09;4.20;99.90
4725;DHT22;2376;53.544;10.226;2023-04-03T01:33:38;4.20;99.90
4725;DHT22;2376;53.544;10.226;2023-04-03T01:36:08;4.20;99.90
4725;DHT22;2376;53.544;10.226;2023-04-03T01:38:35;4.20;99.90
4725;DHT22;2376;53.544;10.226;2023-04-03T01:41:02;4.20;99.90
4725;DHT22;2376;53.544;10.226;2023-04-03T01:43:28;4.30;99.90
4725;DHT22;2376;53.544;10.226;2023-04-03T01:45:55;4.20;99.90
4725;DHT22;2376;53.544;10.226;2023-04-03T01:48:22;4.20;99.90
4725;DHT22;2376;53.544;10.226;2023-04-03T01:50:50;4.10;99.90
4725;DHT22;2376;53.544;10.226;2023-04-03T01:53:16;4.10;99.90
4725;DHT22;2376;53.544;10.226;2023-04-03T01:55:43;4.00;99.90
4725;DHT22;2376;53.544;10.226;2023-04-03T01:58:10;4.00;99.90
4725;DHT22;2376;53.544;10.226;2023-04-03T02:00:36;4.00;99.90
4725;DHT22;2376;53.544;10.226;2023-04-03T02:03:03;3.90;99.90
4725;DHT22;2376;53.544;10.226;2023-04-03T02:05:30;3.90;99.90
4725;DHT22;2376;53.544;10.226;2023-04-03T02:07:58;3.90;99.90
4725;DHT22;2376;53.544;10.226;2023-04-03T02:10:25;3.90;99.90
4725;DHT22;2376;53.544;10.226;2023-04-03T02:12:52;3.90;99.90
4725;DHT22;2376;53.544;10.226;2023-04-03T02:15:18;3.90;99.90
4725;DHT22;2376;53.544;10.226;2023-04-03T02:17:45;3.90;99.90
4725;DHT22;2376;53.544;10.226;2023-04-03T02:20:12;4.00;99.90
4725;DHT22;2376;53.544;10.226;2023-04-03T02:22:38;3.90;99.90
4725;DHT22;2376;53.544;10.226;2023-04-03T02:25:07;3.90;99.90
4725;DHT22;2376;53.544;10.226;2023-04-03T02:27:35;3.90;99.90
4725;DHT22;2376;53.544;10.226;2023-04-03T02:30:02;3.80;99.90
4725;DHT22;2376;53.544;10.226;2023-04-03T02:32:28;3.80;99.90
4725;DHT22;2376;53.544;10.226;2023-04-03T02:34:55;3.80;99.90
4725;DHT22;2376;53.544;10.226;2023-04-03T02:37:22;3.80;99.90
4725;DHT22;2376;53.544;10.226;2023-04-03T02:39:48;3.80;99.90
4725;DHT22;2376;53.544;10.226;2023-04-03T02:42:17;3.80;99.90
4725;DHT22;2376;53.544;10.226;2023-04-03T02:44:43;3.80;99.90
4725;DHT22;2376;53.544;10.226;2023-04-03T02:47:10;3.70;99.90
4725;DHT22;2376;53.544;10.226;2023-04-03T02:49:36;3.80;99.90
4725;DHT22;2376;53.544;10.226;2023-04-03T02:52:03;3.80;99.90
4725;DHT22;2376;53.544;10.226;2023-04-03T02:54:30;3.80;99.90
4725;DHT22;2376;53.544;10.226;2023-04-03T02:56:57;3.80;99.90
4725;DHT22;2376;53.544;10.226;2023-04-03T02:59:25;3.80;99.90
4725;DHT22;2376;53.544;10.226;2023-04-03T03:01:52;3.80;99.90
4725;DHT22;2376;53.544;10.226;2023-04-03T03:04:19;3.80;99.90
4725;DHT22;2376;53.544;10.226;2023-04-03T03:06:45;3.70;99.90
4725;DHT22;2376;53.544;10.226;2023-04-03T03:09:13;3.70;99.90
4725;DHT22;2376;53.544;10.226;2023-04-03T03:11:40;3.70;99.90
4725;DHT22;2376;53.544;10.226;2023-04-03T03:14:06;3.70;99.90
4725;DHT22;2376;53.544;10.226;2023-04-03T03:16:34;3.70;99.90
4725;DHT22;2376;53.544;10.226;2023-04-03T03:19:01;3.60;99.90
4725;DHT22;2376;53.544;10.226;2023-04-03T03:21:28;3.60;99.90
4725;DHT22;2376;53.544;10.226;2023-04-03T03:23:55;3.60;99.90
4725;DHT22;2376;53.544;10.226;2023-04-03T03:26:21;3.60;99.90
4725;DHT22;2376;53.544;10.226;2023-04-03T03:28:49;3.60;99.90
4725;DHT22;2376;53.544;10.226;2023-04-03T03:31:15;3.50;99.90
4725;DHT22;2376;53.544;10.226;2023-04-03T03:33:44;3.50;99.90
4725;DHT22;2376;53.544;10.226;2023-04-03T03:36:10;3.40;99.90
4725;DHT22;2376;53.544;10.226;2023-04-03T03:38:37;3.40;99.90
4725;DHT22;2376;53.544;10.226;2023-04-03T03:41:04;3.40;99.90
4725;DHT22;2376;53.544;10.226;2023-04-03T03:43:31;3.40;99.90
4725;DHT22;2376;53.544;10.226;2023-04-03T03:45:57;3.40;99.90
4725;DHT22;2376;53.544;10.226;2023-04-03T03:48:24;3.40;99.90
4725;DHT22;2376;53.544;10.226;2023-04-03T03:50:52;3.40;99.90
4725;DHT22;2376;53.544;10.226;2023-04-03T03:53:18;3.40;99.90
4725;DHT22;2376;53.544;10.226;2023-04-03T03:55:45;3.40;99.90
4725;DHT22;2376;53.544;10.226;2023-04-03T03:58:12;3.40;99.90
4725;DHT22;2376;53.544;10.226;2023-04-03T04:00:39;3.30;99.90
4725;DHT22;2376;53.544;10.226;2023-04-03T04:03:05;3.30;99.90
4725;DHT22;2376;53.544;10.226;2023-04-03T04:05:32;3.30;99.90
4725;DHT22;2376;53.544;10.226;2023-04-03T04:08:00;3.40;99.90
4725;DHT22;2376;53.544;10.226;2023-04-03T04:10:27;3.30;99.90
4725;DHT22;2376;53.544;10.226;2023-04-03T04:12:53;3.40;99.90
4725;DHT22;2376;53.544;10.226;2023-04-03T04:15:20;3.30;99.90
4725;DHT22;2376;53.544;10.226;2023-04-03T04:17:48;3.40;99.90
4725;DHT22;2376;53.544;10.226;2023-04-03T04:20:15;3.40;99.90
4725;DHT22;2376;53.544;10.226;2023-04-03T04:22:42;3.30;99.90
4725;DHT22;2376;53.544;10.226;2023-04-03T04:25:10;3.30;99.90
4725;DHT22;2376;53.544;10.226;2023-04-03T04:27:37;3.30;99.90
4725;DHT22;2376;53.544;10.226;2023-04-03T04:30:05;3.20;99.90
4725;DHT22;2376;53.544;10.226;2023-04-03T04:32:32;3.20;99.90
4725;DHT22;2376;53.544;10.226;2023-04-03T04:34:59;3.20;99.90
4725;DHT22;2376;53.544;10.226;2023-04-03T04:37:26;3.20;99.90
4725;DHT22;2376;53.544;10.226;2023-04-03T05:38:52;3.20;99.90
4725;DHT22;2376;53.544;10.226;2023-04-03T05:41:19;3.20;99.90
4725;DHT22;2376;53.544;10.226;2023-04-03T05:43:46;3.30;99.90
4725;DHT22;2376;53.544;10.226;2023-04-03T05:46:14;3.30;99.90
4725;DHT22;2376;53.544;10.226;2023-04-03T05:48:41;3.30;99.90
4725;DHT22;2376;53.544;10.226;2023-04-03T05:51:14;3.30;99.90
4725;DHT22;2376;53.544;10.226;2023-04-03T05:53:42;3.40;99.90
4725;DHT22;2376;53.544;10.226;2023-04-03T05:56:10;3.40;99.90
4725;DHT22;2376;53.544;10.226;2023-04-03T05:58:36;3.40;99.90
4725;DHT22;2376;53.544;10.226;2023-04-03T06:01:04;3.50;99.90
4725;DHT22;2376;53.544;10.226;2023-04-03T06:03:31;3.40;99.90
4725;DHT22;2376;53.544;10.226;2023-04-03T06:05:58;3.20;99.90
4725;DHT22;2376;53.544;10.226;2023-04-03T06:08:26;3.30;99.90
4725;DHT22;2376;53.544;10.226;2023-04-03T06:10:53;3.40;99.90
4725;DHT22;2376;53.544;10.226;2023-04-03T06:13:20;3.30;99.90
4725;DHT22;2376;53.544;10.226;2023-04-03T06:15:47;3.50;99.90
4725;DHT22;2376;53.544;10.226;2023-04-03T06:18:14;3.50;99.90
4725;DHT22;2376;53.544;10.226;2023-04-03T06:20:41;3.50;99.90
4725;DHT22;2376;53.544;10.226;2023-04-03T06:23:07;3.50;99.90
4725;DHT22;2376;53.544;10.226;2023-04-03T06:25:36;3.70;99.90
4725;DHT22;2376;53.544;10.226;2023-04-03T06:28:03;3.80;99.90
4725;DHT22;2376;53.544;10.226;2023-04-03T06:30:30;4.00;99.90
4725;DHT22;2376;53.544;10.226;2023-04-03T06:32:56;4.10;99.90
4725;DHT22;2376;53.544;10.226;2023-04-03T06:35:24;4.00;99.90
4725;DHT22;2376;53.544;10.226;2023-04-03T06:37:52;3.80;99.90
4725;DHT22;2376;53.544;10.226;2023-04-03T06:40:21;3.90;99.90
4725;DHT22;2376;53.544;10.226;2023-04-03T06:42:50;4.00;99.90
4725;DHT22;2376;53.544;10.226;2023-04-03T06:45:17;4.00;99.90
4725;DHT22;2376;53.544;10.226;2023-04-03T06:47:44;4.00;99.90
4725;DHT22;2376;53.544;10.226;2023-04-03T06:50:12;4.00;99.90
4725;DHT22;2376;53.544;10.226;2023-04-03T06:52:40;4.00;99.90
4725;DHT22;2376;53.544;10.226;2023-04-03T06:55:07;4.30;99.90
4725;DHT22;2376;53.544;10.226;2023-04-03T06:57:34;4.30;99.90
4725;DHT22;2376;53.544;10.226;2023-04-03T07:00:05;4.50;99.90
4725;DHT22;2376;53.544;10.226;2023-04-03T07:02:32;4.30;99.90
4725;DHT22;2376;53.544;10.226;2023-04-03T07:04:59;4.40;99.90
4725;DHT22;2376;53.544;10.226;2023-04-03T07:07:26;4.30;99.90
4725;DHT22;2376;53.544;10.226;2023-04-03T07:09:53;4.50;99.90
4725;DHT22;2376;53.544;10.226;2023-04-03T07:12:20;4.50;99.90
4725;DHT22;2376;53.544;10.226;2023-04-03T07:14:47;4.70;99.90
4725;DHT22;2376;53.544;10.226;2023-04-03T07:17:15;4.80;99.90
4725;DHT22;2376;53.544;10.226;2023-04-03T07:19:41;4.40;99.90
4725;DHT22;2376;53.544;10.226;2023-04-03T07:22:08;4.50;99.90
4725;DHT22;2376;53.544;10.226;2023-04-03T07:24:36;4.70;99.90
4725;DHT22;2376;53.544;10.226;2023-04-03T07:27:03;4.60;99.90
4725;DHT22;2376;53.544;10.226;2023-04-03T07:29:31;4.70;99.90
4725;DHT22;2376;53.544;10.226;2023-04-03T07:31:58;4.70;99.90
4725;DHT22;2376;53.544;10.226;2023-04-03T07:34:26;4.70;99.90
4725;DHT22;2376;53.544;10.226;2023-04-03T07:36:53;4.80;99.90
4725;DHT22;2376;53.544;10.226;2023-04-03T07:39:20;4.80;99.90
4725;DHT22;2376;53.544;10.226;2023-04-03T07:41:47;4.70;99.90
4725;DHT22;2376;53.544;10.226;2023-04-03T07:44:13;4.70;99.90
4725;DHT22;2376;53.544;10.226;2023-04-03T07:46:40;4.80;99.90
4725;DHT22;2376;53.544;10.226;2023-04-03T07:49:08;4.90;99.90
4725;DHT22;2376;53.544;10.226;2023-04-03T07:51:36;4.90;99.90
4725;DHT22;2376;53.544;10.226;2023-04-03T07:54:03;4.90;99.90
4725;DHT22;2376;53.544;10.226;2023-04-03T07:56:30;5.00;99.90
4725;DHT22;2376;53.544;10.226;2023-04-03T07:58:57;5.20;99.90
4725;DHT22;2376;53.544;10.226;2023-04-03T08:01:24;5.00;99.90
4725;DHT22;2376;53.544;10.226;2023-04-03T08:03:50;5.00;99.90
4725;DHT22;2376;53.544;10.226;2023-04-03T08:06:17;5.20;99.90
4725;DHT22;2376;53.544;10.226;2023-04-03T08:08:45;5.60;99.90
4725;DHT22;2376;53.544;10.226;2023-04-03T08:11:12;5.40;99.90
4725;DHT22;2376;53.544;10.226;2023-04-03T08:13:39;5.50;99.90
4725;DHT22;2376;53.544;10.226;2023-04-03T08:16:08;5.60;99.90
4725;DHT22;2376;53.544;10.226;2023-04-03T08:18:35;5.80;99.90
4725;DHT22;2376;53.544;10.226;2023-04-03T08:21:06;6.00;99.90
4725;DHT22;2376;53.544;10.226;2023-04-03T08:23:33;5.80;99.90
4725;DHT22;2376;53.544;10.226;2023-04-03T08:26:07;5.90;99.90
4725;DHT22;2376;53.544;10.226;2023-04-03T08:28:33;6.20;99.90
4725;DHT22;2376;53.544;10.226;2023-04-03T08:31:03;6.10;99.90
4725;DHT22;2376;53.544;10.226;2023-04-03T08:33:32;6.30;99.90
4725;DHT22;2376;53.544;10.226;2023-04-03T08:35:59;6.30;98.10
4725;DHT22;2376;53.544;10.226;2023-04-03T08:38:26;6.40;91.50
4725;DHT22;2376;53.544;10.226;2023-04-03T08:41:01;6.40;92.80
4725;DHT22;2376;53.544;10.226;2023-04-03T08:43:35;6.40;89.90
4725;DHT22;2376;53.544;10.226;2023-04-03T08:46:06;6.50;80.20
4725;DHT22;2376;53.544;10.226;2023-04-03T08:48:37;6.30;76.30
4725;DHT22;2376;53.544;10.226;2023-04-03T08:51:14;6.30;74.90
4725;DHT22;2376;53.544;10.226;2023-04-03T08:53:54;6.60;72.20
4725;DHT22;2376;53.544;10.226;2023-04-03T08:56:24;6.50;70.10
4725;DHT22;2376;53.544;10.226;2023-04-03T08:58:55;6.90;68.90
4725;DHT22;2376;53.544;10.226;2023-04-03T09:01:26;6.80;62.20
4725;DHT22;2376;53.544;10.226;2023-04-03T09:03:54;6.90;68.00
4725;DHT22;2376;53.544;10.226;2023-04-03T09:06:22;7.10;67.10
4725;DHT22;2376;53.544;10.226;2023-04-03T09:08:53;7.20;62.90
4725;DHT22;2376;53.544;10.226;2023-04-03T09:11:26;7.10;62.20
4725;DHT22;2376;53.544;10.226;2023-04-03T09:13:59;7.00;60.40
4725;DHT22;2376;53.544;10.226;2023-04-03T09:16:36;6.90;60.90
4725;DHT22;2376;53.544;10.226;2023-04-03T09:19:13;7.40;58.40
4725;DHT22;2376;53.544;10.226;2023-04-03T09:21:41;7.50;57.50
4725;DHT22;2376;53.544;10.226;2023-04-03T09:24:10;7.40;58.80
4725;DHT22;2376;53.544;10.226;2023-04-03T09:26:42;7.60;59.10
4725;DHT22;2376;53.544;10.226;2023-04-03T09:29:16;7.90;58.80
4725;DHT22;2376;53.544;10.226;2023-04-03T09:31:45;8.10;59.30
4725;DHT22;2376;53.544;10.226;2023-04-03T09:34:20;7.90;59.60
4725;DHT22;2376;53.544;10.226;2023-04-03T09:36:50;8.00;59.90
4725;DHT22;2376;53.544;10.226;2023-04-03T09:39:20;8.30;58.10
4725;DHT22;2376;53.544;10.226;2023-04-03T09:42:02;8.90;57.00
4725;DHT22;2376;53.544;10.226;2023-04-03T09:44:33;8.70;54.30
4725;DHT22;2376;53.544;10.226;2023-04-03T09:47:22;9.10;53.20
4725;DHT22;2376;53.544;10.226;2023-04-03T09:49:50;9.00;54.00
4725;DHT22;2376;53.544;10.226;2023-04-03T09:52:22;8.30;55.00
4725;DHT22;2376;53.544;10.226;2023-04-03T09:54:49;8.10;53.50
4725;DHT22;2376;53.544;10.226;2023-04-03T09:57:16;8.00;52.20
4725;DHT22;2376;53.544;10.226;2023-04-03T09:59:47;8.00;53.00
4725;DHT22;2376;53.544;10.226;2023-04-03T10:02:33;7.80;54.10
4725;DHT22;2376;53.544;10.226;2023-04-03T10:05:01;8.30;54.60
4725;DHT22;2376;53.544;10.226;2023-04-03T10:07:31;8.70;55.20
4725;DHT22;2376;53.544;10.226;2023-04-03T10:10:00;8.90;54.20
4725;DHT22;2376;53.544;10.226;2023-04-03T10:12:29;8.90;54.20
4725;DHT22;2376;53.544;10.226;2023-04-03T10:14:59;8.30;53.30
4725;DHT22;2376;53.544;10.226;2023-04-03T10:17:37;7.80;56.10
4725;DHT22;2376;53.544;10.226;2023-04-03T10:20:22;7.70;57.50
4725;DHT22;2376;53.544;10.226;2023-04-03T10:23:00;8.00;55.80
4725;DHT22;2376;53.544;10.226;2023-04-03T10:25:34;8.20;55.90
4725;DHT22;2376;53.544;10.226;2023-04-03T10:28:09;7.90;54.30
4725;DHT22;2376;53.544;10.226;2023-04-03T10:30:48;7.60;55.40
4725;DHT22;2376;53.544;10.226;2023-04-03T10:33:27;7.50;54.10
4725;DHT22;2376;53.544;10.226;2023-04-03T10:36:06;7.50;54.80
4725;DHT22;2376;53.544;10.226;2023-04-03T10:38:43;7.40;55.60
4725;DHT22;2376;53.544;10.226;2023-04-03T10:41:19;7.50;57.30
4725;DHT22;2376;53.544;10.226;2023-04-03T10:44:02;7.70;57.80
4725;DHT22;2376;53.544;10.226;2023-04-03T10:46:38;8.10;57.30
4725;DHT22;2376;53.544;10.226;2023-04-03T10:49:14;8.00;57.50
4725;DHT22;2376;53.544;10.226;2023-04-03T10:51:46;8.10;58.00
4725;DHT22;2376;53.544;10.226;2023-04-03T10:54:18;8.30;59.20
4725;DHT22;2376;53.544;10.226;2023-04-03T10:56:48;8.60;59.30
4725;DHT22;2376;53.544;10.226;2023-04-03T10:59:23;8.60;58.00
4725;DHT22;2376;53.544;10.226;2023-04-03T11:01:56;8.40;57.10
4725;DHT22;2376;53.544;10.226;2023-04-03T11:04:27;8.40;56.40
4725;DHT22;2376;53.544;10.226;2023-04-03T11:07:00;8.10;56.00
4725;DHT22;2376;53.544;10.226;2023-04-03T11:09:28;8.10;56.60
4725;DHT22;2376;53.544;10.226;2023-04-03T11:12:01;8.10;57.80
4725;DHT22;2376;53.544;10.226;2023-04-03T11:14:31;8.20;57.80
4725;DHT22;2376;53.544;10.226;2023-04-03T11:17:09;8.40;57.20
4725;DHT22;2376;53.544;10.226;2023-04-03T11:19:41;8.40;56.60
4725;DHT22;2376;53.544;10.226;2023-04-03T11:22:16;8.50;57.20
4725;DHT22;2376;53.544;10.226;2023-04-03T11:27:17;8.40;56.00
4725;DHT22;2376;53.544;10.226;2023-04-03T11:29:48;8.00;55.50
4725;DHT22;2376;53.544;10.226;2023-04-03T11:32:35;8.10;57.90
4725;DHT22;2376;53.544;10.226;2023-04-03T11:35:06;8.00;53.80
4725;DHT22;2376;53.544;10.226;2023-04-03T11:37:37;8.10;56.40
4725;DHT22;2376;53.544;10.226;2023-04-03T11:40:06;8.00;60.10
4725;DHT22;2376;53.544;10.226;2023-04-03T11:42:37;8.40;59.80
4725;DHT22;2376;53.544;10.226;2023-04-03T11:45:25;8.50;59.30
4725;DHT22;2376;53.544;10.226;2023-04-03T11:47:57;8.70;57.30
4725;DHT22;2376;53.544;10.226;2023-04-03T11:50:44;9.00;58.30
4725;DHT22;2376;53.544;10.226;2023-04-03T11:53:35;8.90;56.20
4725;DHT22;2376;53.544;10.226;2023-04-03T11:56:27;8.80;54.00
4725;DHT22;2376;53.544;10.226;2023-04-03T11:59:16;8.50;55.20
4725;DHT22;2376;53.544;10.226;2023-04-03T12:01:45;8.30;55.20
4725;DHT22;2376;53.544;10.226;2023-04-03T12:04:16;8.30;54.80
4725;DHT22;2376;53.544;10.226;2023-04-03T12:10:01;8.50;55.50
4725;DHT22;2376;53.544;10.226;2023-04-03T12:12:33;9.10;56.00
4725;DHT22;2376;53.544;10.226;2023-04-03T12:15:26;8.80;52.90
4725;DHT22;2376;53.544;10.226;2023-04-03T12:17:53;8.60;51.60
4725;DHT22;2376;53.544;10.226;2023-04-03T12:20:51;8.60;53.40
4725;DHT22;2376;53.544;10.226;2023-04-03T12:23:30;8.40;55.40
4725;DHT22;2376;53.544;10.226;2023-04-03T12:26:03;8.30;55.20
4725;DHT22;2376;53.544;10.226;2023-04-03T12:28:37;8.40;56.40
4725;DHT22;2376;53.544;10.226;2023-04-03T12:31:04;8.40;55.80
4725;DHT22;2376;53.544;10.226;2023-04-03T12:33:43;8.30;56.00
4725;DHT22;2376;53.544;10.226;2023-04-03T12:36:21;8.50;55.90
4725;DHT22;2376;53.544;10.226;2023-04-03T12:39:00;8.70;55.10
4725;DHT22;2376;53.544;10.226;2023-04-03T12:41:36;8.70;54.50
4725;DHT22;2376;53.544;10.226;2023-04-03T12:44:22;8.40;54.40
4725;DHT22;2376;53.544;10.226;2023-04-03T12:46:52;8.30;53.70
4725;DHT22;2376;53.544;10.226;2023-04-03T12:49:32;8.20;54.30
4725;DHT22;2376;53.544;10.226;2023-04-03T12:52:03;7.70;52.90
4725;DHT22;2376;53.544;10.226;2023-04-03T12:54:35;7.90;54.20
4725;DHT22;2376;53.544;10.226;2023-04-03T12:57:10;7.80;54.20
4725;DHT22;2376;53.544;10.226;2023-04-03T12:59:37;7.70;53.90
4725;DHT22;2376;53.544;10.226;2023-04-03T13:02:15;7.70;53.90
4725;DHT22;2376;53.544;10.226;2023-04-03T13:04:44;7.70;54.20
4725;DHT22;2376;53.544;10.226;2023-04-03T13:07:21;7.80;53.30
4725;DHT22;2376;53.544;10.226;2023-04-03T13:09:58;8.10;52.00
4725;DHT22;2376;53.544;10.226;2023-04-03T13:12:25;8.30;52.20
4725;DHT22;2376;53.544;10.226;2023-04-03T13:14:53;8.30;51.00
4725;DHT22;2376;53.544;10.226;2023-04-03T13:17:21;8.00;50.70
4725;DHT22;2376;53.544;10.226;2023-04-03T13:19:47;7.90;52.00
4725;DHT22;2376;53.544;10.226;2023-04-03T13:22:28;8.10;53.10
4725;DHT22;2376;53.544;10.226;2023-04-03T13:25:03;8.80;52.40
4725;DHT22;2376;53.544;10.226;2023-04-03T13:27:32;8.90;51.00
4725;DHT22;2376;53.544;10.226;2023-04-03T13:30:01;8.90;50.00
4725;DHT22;2376;53.544;10.226;2023-04-03T13:32:31;8.80;47.00
4725;DHT22;2376;53.544;10.226;2023-04-03T13:34:58;8.50;47.30
4725;DHT22;2376;53.544;10.226;2023-04-03T13:37:29;8.30;49.10
4725;DHT22;2376;53.544;10.226;2023-04-03T13:39:58;8.40;48.60
4725;DHT22;2376;53.544;10.226;2023-04-03T13:42:27;8.80;46.40
4725;DHT22;2376;53.544;10.226;2023-04-03T13:45:18;8.50;47.30
4725;DHT22;2376;53.544;10.226;2023-04-03T13:47:46;8.90;46.70
4725;DHT22;2376;53.544;10.226;2023-04-03T13:50:17;8.40;48.80
4725;DHT22;2376;53.544;10.226;2023-04-03T13:52:48;8.30;49.30
4725;DHT22;2376;53.544;10.226;2023-04-03T13:55:20;8.20;49.30
4725;DHT22;2376;53.544;10.226;2023-04-03T13:57:52;8.10;47.60
4725;DHT22;2376;53.544;10.226;2023-04-03T14:00:22;8.10;49.60
4725;DHT22;2376;53.544;10.226;2023-04-03T14:02:54;8.10;49.40
4725;DHT22;2376;53.544;10.226;2023-04-03T14:05:22;8.10;50.00
4725;DHT22;2376;53.544;10.226;2023-04-03T14:07:52;8.40;49.50
4725;DHT22;2376;53.544;10.226;2023-04-03T14:10:20;8.20;46.20
4725;DHT22;2376;53.544;10.226;2023-04-03T14:12:47;8.20;46.40
4725;DHT22;2376;53.544;10.226;2023-04-03T14:15:18;8.30;45.80
4725;DHT22;2376;53.544;10.226;2023-04-03T14:17:45;8.10;46.40
4725;DHT22;2376;53.544;10.226;2023-04-03T14:20:15;8.10;46.70
4725;DHT22;2376;53.544;10.226;2023-04-03T14:22:42;8.60;46.90
4725;DHT22;2376;53.544;10.226;2023-04-03T14:25:10;8.30;46.50
4725;DHT22;2376;53.544;10.226;2023-04-03T14:27:39;8.30;47.70
4725;DHT22;2376;53.544;10.226;2023-04-03T14:30:20;8.20;48.40
4725;DHT22;2376;53.544;10.226;2023-04-03T14:32:47;8.10;48.00
4725;DHT22;2376;53.544;10.226;2023-04-03T14:35:15;7.90;47.70
4725;DHT22;2376;53.544;10.226;2023-04-03T14:37:42;7.90;47.50
4725;DHT22;2376;53.544;10.226;2023-04-03T14:40:13;8.30;46.70
4725;DHT22;2376;53.544;10.226;2023-04-03T14:42:40;8.30;47.70
4725;DHT22;2376;53.544;10.226;2023-04-03T14:45:09;8.20;47.80
4725;DHT22;2376;53.544;10.226;2023-04-03T14:47:40;8.00;47.10
4725;DHT22;2376;53.544;10.226;2023-04-03T14:50:13;8.00;47.60
4725;DHT22;2376;53.544;10.226;2023-04-03T14:52:41;7.90;49.30
4725;DHT22;2376;53.544;10.226;2023-04-03T14:55:11;8.00;49.00
4725;DHT22;2376;53.544;10.226;2023-04-03T14:57:38;7.90;48.30
4725;DHT22;2376;53.544;10.226;2023-04-03T15:00:10;8.00;49.20
4725;DHT22;2376;53.544;10.226;2023-04-03T15:02:39;8.00;47.90
4725;DHT22;2376;53.544;10.226;2023-04-03T15:05:09;8.00;48.60
4725;DHT22;2376;53.544;10.226;2023-04-03T15:07:38;7.70;48.30
4725;DHT22;2376;53.544;10.226;2023-04-03T15:10:17;7.80;49.30
4725;DHT22;2376;53.544;10.226;2023-04-03T15:12:46;7.80;48.60
4725;DHT22;2376;53.544;10.226;2023-04-03T15:15:14;8.00;49.10
4725;DHT22;2376;53.544;10.226;2023-04-03T15:17:42;8.30;49.60
4725;DHT22;2376;53.544;10.226;2023-04-03T15:20:14;8.50;49.30
4725;DHT22;2376;53.544;10.226;2023-04-03T15:22:41;8.30;49.00
4725;DHT22;2376;53.544;10.226;2023-04-03T15:25:08;8.40;50.00
4725;DHT22;2376;53.544;10.226;2023-04-03T15:27:37;8.50;48.40
4725;DHT22;2376;53.544;10.226;2023-04-03T15:30:08;8.30;49.30
4725;DHT22;2376;53.544;10.226;2023-04-03T15:32:37;8.30;49.30
4725;DHT22;2376;53.544;10.226;2023-04-03T15:35:05;8.30;50.00
4725;DHT22;2376;53.544;10.226;2023-04-03T15:37:32;8.50;49.60
4725;DHT22;2376;53.544;10.226;2023-04-03T15:39:59;8.70;49.40
4725;DHT22;2376;53.544;10.226;2023-04-03T15:42:25;8.30;50.00
4725;DHT22;2376;53.544;10.226;2023-04-03T15:45:04;8.40;49.70
4725;DHT22;2376;53.544;10.226;2023-04-03T15:47:38;7.90;50.90
4725;DHT22;2376;53.544;10.226;2023-04-03T15:50:06;7.80;52.10
4725;DHT22;2376;53.544;10.226;2023-04-03T15:52:33;7.90;52.90
4725;DHT22;2376;53.544;10.226;2023-04-03T15:55:00;7.90;52.80
4725;DHT22;2376;53.544;10.226;2023-04-03T15:57:27;7.90;52.90
4725;DHT22;2376;53.544;10.226;2023-04-03T15:59:54;7.80;53.60
4725;DHT22;2376;53.544;10.226;2023-04-03T16:02:23;7.60;53.70
4725;DHT22;2376;53.544;10.226;2023-04-03T16:04:53;7.60;53.20
4725;DHT22;2376;53.544;10.226;2023-04-03T16:07:20;7.80;54.40
4725;DHT22;2376;53.544;10.226;2023-04-03T16:09:47;7.80;52.20
4725;DHT22;2376;53.544;10.226;2023-04-03T16:12:14;7.70;52.00
4725;DHT22;2376;53.544;10.226;2023-04-03T16:14:40;7.60;52.60
4725;DHT22;2376;53.544;10.226;2023-04-03T16:17:07;7.60;53.20
4725;DHT22;2376;53.544;10.226;2023-04-03T16:19:35;7.60;55.00
4725;DHT22;2376;53.544;10.226;2023-04-03T16:22:02;7.60;55.60
4725;DHT22;2376;53.544;10.226;2023-04-03T16:24:29;7.50;55.80
4725;DHT22;2376;53.544;10.226;2023-04-03T16:26:56;7.50;57.80
4725;DHT22;2376;53.544;10.226;2023-04-03T16:29:22;7.50;56.80
4725;DHT22;2376;53.544;10.226;2023-04-03T16:31:49;7.70;57.80
4725;DHT22;2376;53.544;10.226;2023-04-03T16:34:17;7.50;56.40
4725;DHT22;2376;53.544;10.226;2023-04-03T16:36:45;7.40;56.50
4725;DHT22;2376;53.544;10.226;2023-04-03T16:39:12;7.10;56.20
4725;DHT22;2376;53.544;10.226;2023-04-03T16:41:38;7.10;57.50
4725;DHT22;2376;53.544;10.226;2023-04-03T16:44:05;7.10;57.90
4725;DHT22;2376;53.544;10.226;2023-04-03T16:46:33;7.20;57.40
4725;DHT22;2376;53.544;10.226;2023-04-03T16:49:00;7.20;58.30
4725;DHT22;2376;53.544;10.226;2023-04-03T16:51:26;7.30;58.30
4725;DHT22;2376;53.544;10.226;2023-04-03T16:53:55;7.10;58.30
4725;DHT22;2376;53.544;10.226;2023-04-03T16:56:21;6.90;58.50
4725;DHT22;2376;53.544;10.226;2023-04-03T16:58:48;6.80;60.10
4725;DHT22;2376;53.544;10.226;2023-04-03T17:01:16;6.70;59.70
4725;DHT22;2376;53.544;10.226;2023-04-03T17:03:44;6.80;60.60
4725;DHT22;2376;53.544;10.226;2023-04-03T17:06:12;6.90;60.40
4725;DHT22;2376;53.544;10.226;2023-04-03T17:08:42;7.10;59.10
4725;DHT22;2376;53.544;10.226;2023-04-03T17:11:10;6.90;57.20
4725;DHT22;2376;53.544;10.226;2023-04-03T17:13:37;6.80;57.90
4725;DHT22;2376;53.544;10.226;2023-04-03T17:16:05;6.80;58.50
4725;DHT22;2376;53.544;10.226;2023-04-03T17:18:34;6.70;58.40
4725;DHT22;2376;53.544;10.226;2023-04-03T17:21:02;6.50;57.00
4725;DHT22;2376;53.544;10.226;2023-04-03T17:23:29;6.30;57.80
4725;DHT22;2376;53.544;10.226;2023-04-03T17:25:56;6.30;57.30
4725;DHT22;2376;53.544;10.226;2023-04-03T17:28:25;6.10;57.80